Time;durP1;ratioP1;P1;durP2;ratioP2;P2;SDS_P1;SDS_P2;PMS_P1;PMS_P2;Temp;Humidity;BMP_temperature;BMP_pressure;BME280_temperature;BME280_humidity;BME280_pressure;Samples;Min_cycle;Max_cycle;Signal;HPM_P1;HPM_P2
2023/06/12 00:01:52;;;;;;;5.93;4.15;;;;;;;-142.57;100.00;115900.28;5000696;28;20132;-86
2023/06/12 00:04:21;;;;;;;5.50;3.95;;;;;;;-142.57;100.00;115900.28;5007279;28;20445;-86
2023/06/12 00:06:48;;;;;;;6.18;3.30;;;;;;;-142.57;100.00;115900.28;4996487;28;20050;-87
2023/06/12 00:09:13;;;;;;;7.75;4.05;;;;;;;-142.57;100.00;115900.28;5013946;28;20030;-86
2023/06/12 00:11:40;;;;;;;7.25;4.05;;;;;;;-142.57;100.00;115900.28;5000477;28;20034;-88
2023/06/12 00:14:06;;;;;;;4.63;3.13;;;;;;;-142.57;100.00;115900.28;5001332;28;20030;-86
2023/06/12 00:16:31;;;;;;;7.57;3.95;;;;;;;-142.57;100.00;115900.28;5009987;28;20068;-86
2023/06/12 00:18:57;;;;;;;5.43;3.80;;;;;;;-142.57;100.00;115900.28;5002744;28;20073;-85
2023/06/12 00:21:23;;;;;;;10.57;4.57;;;;;;;-142.57;100.00;115900.28;5000335;28;20026;-87
2023/06/12 00:23:49;;;;;;;6.03;4.13;;;;;;;-142.57;100.00;115900.28;4999562;28;20065;-86
2023/06/12 00:26:17;;;;;;;10.00;4.28;;;;;;;-142.57;100.00;115900.28;5000426;28;20035;-86
2023/06/12 00:31:25;;;;;;;5.18;3.83;;;;;;;-142.57;100.00;115900.28;3286030;26;20068;-86
2023/06/12 00:33:50;;;;;;;5.32;4.40;;;;;;;-142.57;100.00;115900.28;5067936;28;20072;-84
2023/06/12 00:36:16;;;;;;;9.00;4.20;;;;;;;-142.57;100.00;115900.28;5086089;28;20106;-86
2023/06/12 00:38:41;;;;;;;12.07;4.35;;;;;;;-142.57;100.00;115900.28;5088533;28;20028;-86
2023/06/12 00:41:07;;;;;;;6.70;4.70;;;;;;;-142.57;100.00;115900.28;5069342;28;20089;-90
2023/06/12 00:43:42;;;;;;;5.97;4.28;;;;;;;-142.57;100.00;115900.28;5086085;28;20043;-86
2023/06/12 00:46:10;;;;;;;5.13;3.75;;;;;;;-142.57;100.00;115900.28;5064210;28;20040;-81
2023/06/12 00:48:38;;;;;;;5.80;4.40;;;;;;;-142.57;100.00;115900.28;5046806;28;20468;-83
2023/06/12 00:51:03;;;;;;;9.75;5.10;;;;;;;-142.57;100.00;115900.28;5047652;28;20509;-85
2023/06/12 00:53:29;;;;;;;5.82;4.50;;;;;;;-142.57;100.00;115900.28;5047613;28;20029;-84
2023/06/12 00:55:59;;;;;;;6.13;4.60;;;;;;;-142.57;100.00;115900.28;5057768;28;20119;-86
2023/06/12 00:58:26;;;;;;;6.45;4.72;;;;;;;-142.57;100.00;115900.28;5029607;28;20432;-82
2023/06/12 01:00:54;;;;;;;7.00;4.72;;;;;;;-142.57;100.00;115900.28;5049366;28;20063;-83
2023/06/12 01:03:21;;;;;;;11.90;5.22;;;;;;;-142.57;100.00;115900.28;5054032;28;20033;-83
2023/06/12 01:05:48;;;;;;;9.70;5.30;;;;;;;-142.57;100.00;115900.28;5060261;28;20040;-83
2023/06/12 01:08:18;;;;;;;11.82;4.50;;;;;;;-142.57;100.00;115900.28;5075276;28;20060;-80
2023/06/12 01:10:54;;;;;;;7.15;5.07;;;;;;;-142.57;100.00;115900.28;5076343;28;20063;-83
2023/06/12 01:13:21;;;;;;;7.72;5.13;;;;;;;-142.57;100.00;115900.28;5087666;28;20028;-83
2023/06/12 01:15:47;;;;;;;6.07;4.38;;;;;;;-142.57;100.00;115900.28;5042937;28;20056;-81
2023/06/12 01:18:13;;;;;;;8.32;4.75;;;;;;;-142.57;100.00;115900.28;5051029;28;20356;-82
2023/06/12 01:20:40;;;;;;;8.18;4.50;;;;;;;-142.57;100.00;115900.28;5050986;28;20059;-82
2023/06/12 01:23:51;;;;;;;5.88;4.38;;;;;;;-142.57;100.00;115900.28;5045788;28;20115;-85
2023/06/12 01:26:33;;;;;;;11.52;5.00;;;;;;;-142.57;100.00;115900.28;5056621;28;20064;-86
2023/06/12 01:29:18;;;;;;;;;;;;;;;-142.57;100.00;115900.28;5065458;28;20060;-84
2023/06/12 01:31:43;;;;;;;7.53;4.93;;;;;;;-142.57;100.00;115900.28;5082120;28;19927;-82
2023/06/12 01:34:51;;;;;;;7.45;4.43;;;;;;;-142.57;100.00;115900.28;5061276;28;20044;-87
2023/06/12 01:37:31;;;;;;;7.60;4.68;;;;;;;-142.57;100.00;115900.28;5047436;28;20041;-85
2023/06/12 01:39:58;;;;;;;5.95;4.30;;;;;;;-142.57;100.00;115900.28;5041846;28;20037;-89
2023/06/12 01:42:29;;;;;;;7.22;4.65;;;;;;;-142.57;100.00;115900.28;5041827;28;20359;-88
2023/06/12 01:44:58;;;;;;;11.30;4.75;;;;;;;-142.57;100.00;115900.28;5026056;28;20417;-83
2023/06/12 01:47:26;;;;;;;9.93;6.20;;;;;;;-142.57;100.00;115900.28;5058971;28;20033;-86
2023/06/12 01:49:51;;;;;;;9.13;5.93;;;;;;;-142.57;100.00;115900.28;5048865;28;20071;-81
2023/06/12 01:52:18;;;;;;;7.95;5.70;;;;;;;-142.57;100.00;115900.28;5054979;28;20049;-83
2023/06/12 01:54:49;;;;;;;8.57;6.13;;;;;;;-142.57;100.00;115900.28;5045841;28;20040;-85
2023/06/12 01:57:19;;;;;;;8.20;5.90;;;;;;;-142.57;100.00;115900.28;5046551;28;20052;-82
2023/06/12 01:59:48;;;;;;;8.45;5.57;;;;;;;-142.57;100.00;115900.28;5048067;28;20032;-83
2023/06/12 02:02:15;;;;;;;8.55;5.90;;;;;;;-142.57;100.00;115900.28;5085617;28;20039;-88
2023/06/12 02:04:41;;;;;;;8.05;6.35;;;;;;;-142.57;100.00;115900.28;5084139;28;20028;-85
2023/06/12 02:07:07;;;;;;;9.27;5.72;;;;;;;-142.57;100.00;115900.28;5089396;28;20038;-89
2023/06/12 02:09:33;;;;;;;9.57;6.38;;;;;;;-142.57;100.00;115900.28;5103940;28;20039;-87
2023/06/12 02:12:00;;;;;;;11.02;6.22;;;;;;;-142.57;100.00;115900.28;5081345;28;20021;-81
2023/06/12 02:14:29;;;;;;;11.13;6.28;;;;;;;-142.57;100.00;115900.28;5065858;28;20032;-84
2023/06/12 02:16:55;;;;;;;8.63;5.22;;;;;;;-142.57;100.00;115900.28;5077192;28;20039;-86
2023/06/12 02:19:25;;;;;;;7.63;6.05;;;;;;;-142.57;100.00;115900.28;5063130;28;20477;-83
2023/06/12 02:21:56;;;;;;;7.68;5.85;;;;;;;-142.57;100.00;115900.28;5061890;28;20044;-89
2023/06/12 02:24:31;;;;;;;13.27;5.88;;;;;;;-142.57;100.00;115900.28;5060326;28;20050;-83
2023/06/12 02:27:00;;;;;;;12.07;5.57;;;;;;;-142.57;100.00;115900.28;5053588;28;20044;-83
2023/06/12 02:29:25;;;;;;;10.90;5.95;;;;;;;-142.57;100.00;115900.28;5045089;28;20032;-83
2023/06/12 02:31:54;;;;;;;8.88;5.60;;;;;;;-142.57;100.00;115900.28;5041635;28;20045;-85
2023/06/12 02:34:19;;;;;;;13.38;5.78;;;;;;;-142.57;100.00;115900.28;5045201;28;20477;-84
2023/06/12 02:36:46;;;;;;;8.68;6.18;;;;;;;-142.57;100.00;115900.28;5065693;28;20024;-82
2023/06/12 02:39:18;;;;;;;8.85;6.07;;;;;;;-142.57;100.00;115900.28;5068817;28;20104;-83
2023/06/12 02:41:46;;;;;;;12.50;6.13;;;;;;;-142.57;100.00;115900.28;5030656;28;20041;-84
2023/06/12 02:44:13;;;;;;;8.93;6.20;;;;;;;-142.57;100.00;115900.28;5032191;28;20033;-82
2023/06/12 02:46:52;;;;;;;11.25;6.90;;;;;;;-142.57;100.00;115900.28;5028073;28;20032;-83
2023/06/12 02:49:19;;;;;;;10.40;6.80;;;;;;;-142.57;100.00;115900.28;5052587;28;20463;-83
2023/06/12 02:51:46;;;;;;;10.27;6.65;;;;;;;-142.57;100.00;115900.28;5026139;28;20486;-83
2023/06/12 02:54:12;;;;;;;10.27;7.07;;;;;;;-142.57;100.00;115900.28;5042691;28;20104;-88
2023/06/12 02:56:41;;;;;;;13.40;7.28;;;;;;;-142.57;100.00;115900.28;5045199;28;20060;-83
2023/06/12 02:59:08;;;;;;;14.02;8.20;;;;;;;-142.57;100.00;115900.28;5074230;28;20020;-82
2023/06/12 03:01:35;;;;;;;9.90;6.75;;;;;;;-142.57;100.00;115900.28;5053697;28;20045;-83
2023/06/12 03:04:01;;;;;;;10.68;7.45;;;;;;;-142.57;100.00;115900.28;5059166;28;20421;-83
2023/06/12 03:06:28;;;;;;;13.35;6.82;;;;;;;-142.57;100.00;115900.28;5070054;28;20036;-82
2023/06/12 03:08:55;;;;;;;10.82;7.78;;;;;;;-142.57;100.00;115900.28;5051873;28;20040;-83
2023/06/12 03:11:24;;;;;;;12.77;7.90;;;;;;;-142.57;100.00;115900.28;5080411;28;20373;-82
2023/06/12 03:13:50;;;;;;;8.40;6.97;;;;;;;-142.57;100.00;115900.28;5083077;28;20596;-83
2023/06/12 03:16:16;;;;;;;14.50;7.03;;;;;;;-142.57;100.00;115900.28;5082456;28;20039;-84
2023/06/12 03:18:42;;;;;;;11.18;6.88;;;;;;;-142.57;100.00;115900.28;5064352;28;20082;-84
2023/06/12 03:21:07;;;;;;;12.68;7.35;;;;;;;-142.57;100.00;115900.28;5031238;28;20405;-87
2023/06/12 03:23:33;;;;;;;12.95;7.22;;;;;;;-142.57;100.00;115900.28;5046777;28;20021;-82
2023/06/12 03:26:00;;;;;;;9.45;6.82;;;;;;;-142.57;100.00;115900.28;5064449;28;20025;-85
2023/06/12 03:28:27;;;;;;;11.98;7.18;;;;;;;-142.57;100.00;115900.28;5057961;28;20056;-82
2023/06/12 03:30:53;;;;;;;12.93;6.90;;;;;;;-142.57;100.00;115900.28;5061388;28;20024;-84
2023/06/12 03:33:20;;;;;;;14.13;7.40;;;;;;;-142.57;100.00;115900.28;5086445;28;20115;-84
2023/06/12 03:35:46;;;;;;;19.08;8.68;;;;;;;-142.57;100.00;115900.28;5067253;28;20020;-83
2023/06/12 03:38:13;;;;;;;12.40;8.60;;;;;;;-142.57;100.00;115900.28;5084090;28;20029;-83
2023/06/12 03:40:38;;;;;;;14.73;8.73;;;;;;;-142.57;100.00;115900.28;5061631;28;20072;-81
2023/06/12 03:43:04;;;;;;;17.05;9.07;;;;;;;-142.57;100.00;115900.28;5025653;28;20549;-82
2023/06/12 03:45:30;;;;;;;19.35;9.50;;;;;;;-142.57;100.00;115900.28;5040932;28;20398;-83
2023/06/12 03:47:58;;;;;;;13.43;8.27;;;;;;;-142.57;100.00;115900.28;5057938;28;20093;-85
2023/06/12 03:50:24;;;;;;;17.10;8.02;;;;;;;-142.57;100.00;115900.28;5049057;28;20064;-83
2023/06/12 03:52:50;;;;;;;12.57;8.40;;;;;;;-142.57;100.00;115900.28;5039430;28;20037;-88
2023/06/12 03:55:20;;;;;;;13.65;8.48;;;;;;;-142.57;100.00;115900.28;5025147;28;20047;-85
2023/06/12 03:57:47;;;;;;;15.10;8.98;;;;;;;-142.57;100.00;115900.28;5059053;28;20032;-82
2023/06/12 04:00:13;;;;;;;13.68;8.73;;;;;;;-142.57;100.00;115900.28;5054292;28;20037;-86
2023/06/12 04:02:44;;;;;;;13.17;9.10;;;;;;;-142.57;100.00;115900.28;5058893;28;20029;-83
2023/06/12 04:05:10;;;;;;;14.18;8.60;;;;;;;-142.57;100.00;115900.28;5044409;28;20075;-85
2023/06/12 04:07:36;;;;;;;14.90;8.30;;;;;;;-142.57;100.00;115900.28;5062449;28;20033;-81
2023/06/12 04:10:03;;;;;;;14.10;8.38;;;;;;;-142.57;100.00;115900.28;5058898;28;20292;-82
2023/06/12 04:12:29;;;;;;;18.20;9.63;;;;;;;-142.57;100.00;115900.28;5034931;28;20037;-83
2023/06/12 04:14:55;;;;;;;17.17;8.68;;;;;;;-142.57;100.00;115900.28;5052569;28;20490;-80
2023/06/12 04:17:21;;;;;;;14.73;8.88;;;;;;;-142.57;100.00;115900.28;5034573;28;20071;-82
2023/06/12 04:19:48;;;;;;;17.20;8.30;;;;;;;-142.57;100.00;115900.28;5039926;28;20044;-83
2023/06/12 04:22:15;;;;;;;13.50;8.65;;;;;;;-142.57;100.00;115900.28;5073551;28;20512;-84
2023/06/12 04:24:45;;;;;;;14.95;9.13;;;;;;;-142.57;100.00;115900.28;5084571;28;20107;-83
2023/06/12 04:27:10;;;;;;;17.27;8.77;;;;;;;-142.57;100.00;115900.28;5061613;28;20099;-85
2023/06/12 04:29:43;;;;;;;19.58;9.43;;;;;;;-142.57;100.00;115900.28;5060973;28;20118;-83
2023/06/12 04:32:13;;;;;;;12.70;8.85;;;;;;;-142.57;100.00;115900.28;5050233;28;20033;-86
2023/06/12 04:34:41;;;;;;;16.80;8.40;;;;;;;-142.57;100.00;115900.28;5059248;28;20115;-85
2023/06/12 04:37:13;;;;;;;10.48;7.93;;;;;;;-142.57;100.00;115900.28;5055405;28;20031;-81
2023/06/12 04:39:39;;;;;;;13.90;8.25;;;;;;;-142.57;100.00;115900.28;5051333;28;20051;-82
2023/06/12 04:42:08;;;;;;;10.95;7.63;;;;;;;-142.57;100.00;115900.28;5056324;28;20033;-79
2023/06/12 04:44:39;;;;;;;11.05;7.65;;;;;;;-142.57;100.00;115900.28;5035795;28;20044;-81
2023/06/12 04:47:08;;;;;;;13.80;7.65;;;;;;;-142.57;100.00;115900.28;5034920;28;20049;-80
2023/06/12 04:49:41;;;;;;;13.45;7.65;;;;;;;-142.57;100.00;115900.28;5034544;28;20044;-83
2023/06/12 04:52:12;;;;;;;14.73;7.28;;;;;;;-142.57;100.00;115900.28;5053280;28;20482;-81
2023/06/12 04:54:44;;;;;;;14.40;7.70;;;;;;;-142.57;100.00;115900.28;5052529;28;20033;-79
2023/06/12 04:57:12;;;;;;;19.73;7.50;;;;;;;-142.57;100.00;115900.28;5052291;28;20112;-79
2023/06/12 04:59:39;;;;;;;15.93;7.10;;;;;;;-142.57;100.00;115900.28;5034228;28;20029;-81
2023/06/12 05:02:08;;;;;;;13.57;8.18;;;;;;;-142.57;100.00;115900.28;5036300;28;20095;-86
2023/06/12 05:04:36;;;;;;;12.90;8.23;;;;;;;-142.57;100.00;115900.28;5076234;28;20032;-81
2023/06/12 05:07:04;;;;;;;17.30;7.50;;;;;;;-142.57;100.00;115900.28;5058668;28;20055;-83
2023/06/12 05:09:30;;;;;;;10.40;6.88;;;;;;;-142.57;100.00;115900.28;5078106;28;20029;-83
2023/06/12 05:11:56;;;;;;;14.23;7.15;;;;;;;-142.57;100.00;115900.28;5076097;28;20307;-81
2023/06/12 05:14:22;;;;;;;12.25;6.97;;;;;;;-142.57;100.00;115900.28;5058691;28;20526;-85
2023/06/12 05:16:48;;;;;;;13.90;8.00;;;;;;;-142.57;100.00;115900.28;5073238;28;20358;-85
2023/06/12 05:19:14;;;;;;;10.23;6.35;;;;;;;-142.57;100.00;115900.28;5059766;28;20037;-84
2023/06/12 05:21:41;;;;;;;23.05;7.22;;;;;;;-142.57;100.00;115900.28;5059975;28;20034;-84
2023/06/12 05:24:07;;;;;;;11.18;6.85;;;;;;;-142.57;100.00;115900.28;5050185;28;20041;-83
2023/06/12 05:26:33;;;;;;;14.55;6.95;;;;;;;-142.57;100.00;115900.28;5042534;28;20029;-87
2023/06/12 05:29:01;;;;;;;10.20;6.82;;;;;;;-142.57;100.00;115900.28;5041122;28;20044;-82
2023/06/12 05:31:28;;;;;;;13.60;7.28;;;;;;;-142.57;100.00;115900.28;5039792;28;20394;-82
2023/06/12 05:33:55;;;;;;;10.73;6.07;;;;;;;-142.57;100.00;115900.28;5038370;28;20044;-82
2023/06/12 05:36:20;;;;;;;9.32;7.07;;;;;;;-142.57;100.00;115900.28;5078384;28;20108;-84
2023/06/12 05:38:46;;;;;;;19.33;7.65;;;;;;;-142.57;100.00;115900.28;5061612;28;20492;-82
2023/06/12 05:41:15;;;;;;;14.63;7.20;;;;;;;-142.57;100.00;115900.28;5050796;28;20041;-81
2023/06/12 05:43:40;;;;;;;16.88;7.22;;;;;;;-142.57;100.00;115900.28;5069381;28;20036;-81
2023/06/12 05:46:06;;;;;;;12.07;7.82;;;;;;;-142.57;100.00;115900.28;5053260;28;20040;-83
2023/06/12 05:48:33;;;;;;;16.38;8.00;;;;;;;-142.57;100.00;115900.28;5048234;28;20044;-83
2023/06/12 05:50:59;;;;;;;17.95;7.35;;;;;;;-142.57;100.00;115900.28;5080466;28;20358;-81
2023/06/12 05:53:25;;;;;;;13.40;8.13;;;;;;;-142.57;100.00;115900.28;5061929;28;20036;-85
2023/06/12 05:55:51;;;;;;;13.45;7.90;;;;;;;-142.57;100.00;115900.28;5061756;28;20036;-82
2023/06/12 05:58:16;;;;;;;11.35;7.65;;;;;;;-142.57;100.00;115900.28;5096442;28;20036;-81
2023/06/12 06:00:43;;;;;;;12.27;7.40;;;;;;;-142.57;100.00;115900.28;5064199;28;20035;-84
2023/06/12 06:03:23;;;;;;;11.70;8.63;;;;;;;-142.57;100.00;115900.28;5073480;28;20009;-82
2023/06/12 06:05:49;;;;;;;13.95;8.00;;;;;;;-142.57;100.00;115900.28;5074114;28;20120;-84
2023/06/12 06:08:15;;;;;;;15.40;8.23;;;;;;;-142.57;100.00;115900.28;5041674;28;20029;-82
2023/06/12 06:10:45;;;;;;;10.98;7.60;;;;;;;-142.57;100.00;115900.28;5058381;28;20044;-85
2023/06/12 06:13:11;;;;;;;13.43;7.55;;;;;;;-142.57;100.00;115900.28;5056262;28;20037;-85
2023/06/12 06:15:37;;;;;;;11.93;6.88;;;;;;;-142.57;100.00;115900.28;5058883;28;20033;-83
2023/06/12 06:18:05;;;;;;;17.15;7.88;;;;;;;-142.57;100.00;115900.28;5044058;28;20087;-85
2023/06/12 06:20:31;;;;;;;13.40;7.70;;;;;;;-142.57;100.00;115900.28;5059022;28;20039;-87
2023/06/12 06:22:57;;;;;;;27.58;8.77;;;;;;;-142.57;100.00;115900.28;5048565;28;20108;-83
2023/06/12 06:25:23;;;;;;;16.88;8.18;;;;;;;-142.57;100.00;115900.28;5046834;28;20077;-85
2023/06/12 06:27:49;;;;;;;15.02;7.82;;;;;;;-142.57;100.00;115900.28;5061425;28;20420;-84
2023/06/12 06:30:15;;;;;;;12.77;8.05;;;;;;;-142.57;100.00;115900.28;5078373;28;20040;-82
2023/06/12 06:32:40;;;;;;;13.52;8.60;;;;;;;-142.57;100.00;115900.28;5089729;28;20051;-83
2023/06/12 06:35:06;;;;;;;11.23;7.93;;;;;;;-142.57;100.00;115900.28;5090275;28;20092;-82
2023/06/12 06:37:44;;;;;;;15.82;8.50;;;;;;;-142.57;100.00;115900.28;5056284;28;20105;-83
2023/06/12 06:40:10;;;;;;;16.20;7.93;;;;;;;-142.57;100.00;115900.28;5071527;28;20504;-82
2023/06/12 06:42:36;;;;;;;14.73;8.27;;;;;;;-142.57;100.00;115900.28;5071657;28;20031;-82
2023/06/12 06:45:05;;;;;;;13.13;7.13;;;;;;;-142.57;100.00;115900.28;5057789;28;20090;-81
2023/06/12 06:47:33;;;;;;;14.45;7.65;;;;;;;-142.57;100.00;115900.28;5070327;28;20041;-85
2023/06/12 06:50:00;;;;;;;10.90;7.80;;;;;;;-142.57;100.00;115900.28;5039806;28;20033;-85
2023/06/12 06:52:29;;;;;;;17.88;8.52;;;;;;;-142.57;100.00;115900.28;5070071;28;20875;-82
2023/06/12 06:54:55;;;;;;;11.70;7.75;;;;;;;-142.57;100.00;115900.28;5080838;28;20040;-83
2023/06/12 06:57:23;;;;;;;11.40;7.55;;;;;;;-142.57;100.00;115900.28;5075626;28;20029;-81
2023/06/12 06:59:48;;;;;;;13.10;6.95;;;;;;;-142.57;100.00;115900.28;5041071;28;20099;-84
2023/06/12 07:02:14;;;;;;;12.07;7.38;;;;;;;-142.57;100.00;115900.28;5041759;28;20059;-81
2023/06/12 07:04:40;;;;;;;10.25;6.07;;;;;;;-142.57;100.00;115900.28;5041816;28;20428;-82
2023/06/12 07:07:06;;;;;;;9.52;6.45;;;;;;;-142.57;100.00;115900.28;5041525;28;20559;-83
2023/06/12 07:09:31;;;;;;;7.63;5.32;;;;;;;-142.57;100.00;115900.28;5041106;28;20041;-85
2023/06/12 07:11:57;;;;;;;9.35;6.70;;;;;;;-142.57;100.00;115900.28;5041267;28;20041;-81
2023/06/12 07:14:22;;;;;;;8.60;5.70;;;;;;;-142.57;100.00;115900.28;5042204;28;20025;-81
2023/06/12 07:16:48;;;;;;;13.68;6.38;;;;;;;-142.57;100.00;115900.28;5056917;28;20620;-82
2023/06/12 07:19:13;;;;;;;7.25;4.53;;;;;;;-142.57;100.00;115900.28;5063270;28;20439;-84
2023/06/12 07:21:39;;;;;;;9.20;4.28;;;;;;;-142.57;100.00;115900.28;5070070;28;20039;-81
2023/06/12 07:24:05;;;;;;;10.15;3.85;;;;;;;-142.57;100.00;115900.28;5063925;28;20068;-83
2023/06/12 07:26:35;;;;;;;7.15;4.07;;;;;;;-142.57;93.33;115900.28;5052916;28;20040;-85
2023/06/12 07:29:05;;;;;;;7.93;4.25;;;;;;;-142.57;87.15;115900.28;5036471;28;20061;-84
2023/06/12 07:31:31;;;;;;;10.98;5.13;;;;;;;-142.57;82.62;115900.28;5042579;28;20068;-81
2023/06/12 07:33:57;;;;;;;8.68;5.40;;;;;;;-142.57;78.27;115900.28;5043620;28;20116;-83
2023/06/12 07:36:23;;;;;;;6.88;5.10;;;;;;;-142.57;78.15;115900.28;5054630;28;20051;-85
2023/06/12 07:38:49;;;;;;;12.40;6.25;;;;;;;-142.57;74.61;115900.28;5046638;28;20041;-85
2023/06/12 07:41:15;;;;;;;7.85;4.97;;;;;;;-142.57;74.93;115900.28;5038184;28;20032;-83
2023/06/12 07:43:40;;;;;;;11.40;4.22;;;;;;;-142.57;68.89;115900.28;5073714;28;20062;-82
2023/06/12 07:46:06;;;;;;;14.27;5.65;;;;;;;-142.57;66.39;115900.28;5052461;28;20397;-86
2023/06/12 07:48:32;;;;;;;11.23;6.88;;;;;;;-142.57;66.68;115900.28;5045336;28;20442;-83
2023/06/12 07:50:58;;;;;;;12.75;6.38;;;;;;;-142.57;59.63;115900.28;5031497;28;20111;-83
2023/06/12 07:53:23;;;;;;;8.48;5.57;;;;;;;-142.57;59.33;115900.28;5038195;28;20121;-85
2023/06/12 07:55:50;;;;;;;11.07;6.65;;;;;;;-142.57;59.40;115900.28;5051970;28;20174;-82
2023/06/12 07:58:15;;;;;;;12.20;6.70;;;;;;;-142.57;60.93;115900.28;5036838;28;20021;-81
2023/06/12 08:00:42;;;;;;;10.38;7.18;;;;;;;-142.57;59.18;115900.28;5046439;28;20039;-84
2023/06/12 08:03:08;;;;;;;10.63;6.50;;;;;;;-142.57;56.16;115900.28;5041685;28;20068;-85
2023/06/12 08:05:41;;;;;;;9.75;6.45;;;;;;;-142.57;55.84;115900.28;5065920;28;20123;-87
2023/06/12 08:08:12;;;;;;;10.63;6.55;;;;;;;-142.57;54.56;115900.28;5038250;28;20100;-88
2023/06/12 08:10:38;;;;;;;12.05;6.07;;;;;;;-142.57;54.98;115900.28;5055051;28;20035;-85
2023/06/12 08:13:04;;;;;;;8.43;6.13;;;;;;;-142.57;52.12;115900.28;5056652;28;20090;-89
2023/06/12 08:15:30;;;;;;;7.05;5.57;;;;;;;-142.57;49.11;115900.28;5076547;28;20017;-87
2023/06/12 08:17:56;;;;;;;13.73;6.45;;;;;;;-142.57;50.90;115900.28;5041305;28;20470;-89
2023/06/12 08:20:22;;;;;;;11.98;6.30;;;;;;;-142.57;51.29;115900.28;5056154;28;20040;-88
2023/06/12 08:22:57;;;;;;;8.13;5.75;;;;;;;-142.57;51.07;115900.28;5064790;28;20036;-86
2023/06/12 08:25:26;;;;;;;9.73;6.25;;;;;;;-142.57;49.38;115900.28;5066232;28;20128;-87
2023/06/12 08:27:52;;;;;;;5.78;4.97;;;;;;;-142.57;47.29;115900.28;5041774;28;20036;-84
2023/06/12 08:30:18;;;;;;;8.80;5.53;;;;;;;-142.57;46.47;115900.28;5054170;28;20052;-86
2023/06/12 08:32:45;;;;;;;7.30;5.32;;;;;;;-142.57;46.39;115900.28;5043820;28;20025;-83
2023/06/12 08:35:13;;;;;;;8.45;5.68;;;;;;;-142.57;47.03;115900.28;5086045;28;20129;-86
2023/06/12 08:37:42;;;;;;;6.80;4.32;;;;;;;-142.57;45.34;115900.28;5058387;28;20049;-86
2023/06/12 08:40:08;;;;;;;6.35;3.97;;;;;;;-142.57;45.56;115900.28;5070189;28;20092;-85
2023/06/12 08:42:36;;;;;;;7.22;3.55;;;;;;;-142.57;43.65;115900.28;5062629;28;20039;-83
2023/06/12 08:45:28;;;;;;;6.28;3.92;;;;;;;-142.57;44.03;115900.28;5046167;28;20037;-83
2023/06/12 08:47:58;;;;;;;8.75;3.22;;;;;;;-142.57;43.12;115900.28;5080631;28;20060;-85
2023/06/12 08:50:24;;;;;;;4.82;3.28;;;;;;;-142.57;43.33;115900.28;5080515;28;20054;-84
2023/06/12 08:52:51;;;;;;;5.28;3.20;;;;;;;-142.57;43.88;115900.28;5071509;28;20075;-85
2023/06/12 08:55:22;;;;;;;5.10;4.30;;;;;;;-142.57;43.51;115900.28;5065087;28;20039;-83
2023/06/12 08:57:47;;;;;;;8.32;3.75;;;;;;;-142.57;43.42;115900.28;5063690;28;20064;-87
2023/06/12 09:00:14;;;;;;;5.97;4.00;;;;;;;-142.57;44.48;115900.28;5063644;28;20033;-86
2023/06/12 09:02:46;;;;;;;6.72;4.63;;;;;;;-142.57;43.41;115900.28;5025445;28;20032;-89
2023/06/12 09:05:29;;;;;;;8.10;4.60;;;;;;;-142.57;43.32;115900.28;5040686;28;20094;-85
2023/06/12 09:08:00;;;;;;;6.93;4.60;;;;;;;-142.57;45.84;115900.28;5061266;28;20120;-83
2023/06/12 09:10:25;;;;;;;9.13;4.90;;;;;;;-142.57;44.90;115900.28;5057708;28;20087;-83
2023/06/12 09:12:54;;;;;;;5.65;4.53;;;;;;;-142.57;44.06;115900.28;5057046;28;20037;-85
2023/06/12 09:15:21;;;;;;;6.93;5.28;;;;;;;-142.57;42.56;115900.28;5046986;28;20033;-84
2023/06/12 09:17:48;;;;;;;6.00;4.13;;;;;;;-142.57;43.82;115900.28;5021181;28;20390;-84
2023/06/12 09:20:24;;;;;;;11.57;5.10;;;;;;;-142.57;42.25;115900.28;5055764;28;20434;-85
2023/06/12 09:22:53;;;;;;;6.80;4.97;;;;;;;-142.57;44.36;115900.28;5055512;28;20032;-85
2023/06/12 09:25:21;;;;;;;7.90;5.88;;;;;;;-142.57;45.46;115900.28;5067927;28;20123;-86
2023/06/12 09:27:47;;;;;;;10.23;5.40;;;;;;;-142.57;47.47;115900.28;5066545;28;20097;-86
2023/06/12 09:30:13;;;;;;;7.38;5.25;;;;;;;-142.57;48.28;115900.28;5088865;28;20036;-83
2023/06/12 09:32:43;;;;;;;8.68;5.15;;;;;;;-142.57;48.83;115900.28;5077102;28;20030;-83
2023/06/12 09:35:10;;;;;;;8.38;5.85;;;;;;;-142.57;47.81;115900.28;5076943;28;20047;-84
2023/06/12 09:37:37;;;;;;;7.22;5.00;;;;;;;-142.57;47.02;115900.28;5058694;28;20032;-84
2023/06/12 09:40:12;;;;;;;6.97;5.78;;;;;;;-142.57;45.84;115900.28;5076180;28;20131;-84
2023/06/12 09:42:38;;;;;;;7.63;5.05;;;;;;;-142.57;46.16;115900.28;5075420;28;20164;-86
2023/06/12 09:45:14;;;;;;;8.05;5.20;;;;;;;-142.57;46.39;115900.28;5059925;28;20043;-86
2023/06/12 09:47:41;;;;;;;9.57;5.47;;;;;;;-142.57;46.79;115900.28;5059317;28;20369;-87
2023/06/12 09:50:07;;;;;;;9.57;5.07;;;;;;;-142.57;47.70;115900.28;5075102;28;20035;-87
2023/06/12 09:52:35;;;;;;;8.95;4.60;;;;;;;-142.57;47.96;115900.28;5062627;28;20044;-85
2023/06/12 09:55:05;;;;;;;10.55;6.13;;;;;;;-142.57;46.83;115900.28;5080062;28;20064;-84
2023/06/12 09:57:35;;;;;;;12.00;6.43;;;;;;;-142.57;46.48;115900.28;5048912;28;20040;-85
2023/06/12 10:00:02;;;;;;;11.60;6.40;;;;;;;-142.57;47.37;115900.28;5060709;28;20044;-82
2023/06/12 10:02:43;;;;;;;6.35;5.00;;;;;;;-142.57;49.28;115900.28;5065425;28;20048;-83
2023/06/12 10:05:27;;;;;;;8.77;5.20;;;;;;;-142.57;46.61;115900.28;5046773;28;20066;-85
2023/06/12 10:07:59;;;;;;;3.83;3.22;;;;;;;-142.57;45.49;115900.28;5062562;28;20135;-89
2023/06/12 10:10:28;;;;;;;;;;;;;;;-142.57;44.90;115900.28;5060427;28;20116;-86
2023/06/12 10:12:55;;;;;;;5.80;4.57;;;;;;;-142.57;44.59;115900.28;5026021;28;19939;-89
2023/06/12 10:15:21;;;;;;;6.78;4.10;;;;;;;-142.57;44.06;115900.28;5060244;28;20024;-87
2023/06/12 10:17:50;;;;;;;8.75;4.20;;;;;;;-142.57;43.42;115900.28;5030376;28;20041;-87
2023/06/12 10:20:20;;;;;;;6.63;5.15;;;;;;;-142.57;45.22;115900.28;5044763;28;20029;-86
2023/06/12 10:22:47;;;;;;;7.10;6.00;;;;;;;-142.57;46.85;115900.28;5042613;28;20044;-82
2023/06/12 10:25:15;;;;;;;7.97;5.60;;;;;;;-142.57;48.76;115900.28;5061771;28;20092;-85
2023/06/12 10:27:45;;;;;;;6.55;4.78;;;;;;;-142.57;48.59;115900.28;5042359;28;20067;-88
2023/06/12 10:30:15;;;;;;;9.05;4.97;;;;;;;-142.57;49.65;115900.28;5069053;28;20037;-89
2023/06/12 10:32:42;;;;;;;9.20;5.28;;;;;;;-142.57;50.03;115900.28;5081338;28;20389;-86
2023/06/12 10:35:08;;;;;;;7.50;4.55;;;;;;;-142.57;49.70;115900.28;5082329;28;20144;-85
2023/06/12 10:37:42;;;;;;;8.57;4.88;;;;;;;-142.57;49.01;115900.28;5079183;28;20048;-83
2023/06/12 10:40:17;;;;;;;6.60;4.45;;;;;;;-142.57;47.32;115900.28;5072866;28;20043;-87
2023/06/12 10:42:44;;;;;;;8.10;4.75;;;;;;;-142.57;48.04;115900.28;5066084;28;20044;-86
2023/06/12 10:45:25;;;;;;;8.65;4.82;;;;;;;-142.57;47.94;115900.28;5090729;28;20029;-85
2023/06/12 10:48:06;;;;;;;8.10;4.53;;;;;;;-142.57;48.11;115900.28;5087918;28;20032;-86
2023/06/12 10:50:36;;;;;;;9.27;4.97;;;;;;;-142.57;47.45;115900.28;5087086;28;20108;-86
2023/06/12 10:53:13;;;;;;;8.48;4.57;;;;;;;-142.57;46.87;115900.28;5063624;28;20040;-87
2023/06/12 10:55:39;;;;;;;8.02;4.53;;;;;;;-142.57;45.93;115900.28;5074926;28;20029;-84
2023/06/12 10:58:07;;;;;;;5.03;4.47;;;;;;;-142.57;45.18;115900.28;5074992;28;20059;-86
2023/06/12 11:00:38;;;;;;;6.82;3.95;;;;;;;-142.57;44.13;115900.28;5064974;28;20028;-85
2023/06/12 11:03:06;;;;;;;7.18;4.72;;;;;;;-142.57;43.44;115900.28;5075529;28;20037;-84
2023/06/12 11:05:33;;;;;;;8.25;3.67;;;;;;;-142.57;43.69;115900.28;5066629;28;20037;-84
2023/06/12 11:08:07;;;;;;;11.32;4.43;;;;;;;-142.57;42.97;115900.28;5074208;28;20119;-84